createdAt,value
2018-08-10T00:04:34.527Z,23.9
2018-08-10T00:09:34.475Z,23.6
2018-08-10T00:14:34.628Z,23.7
2018-08-10T00:19:34.642Z,23.7
2018-08-10T00:24:34.693Z,23.5
2018-08-10T00:29:34.630Z,23.5
2018-08-10T00:34:34.654Z,23.4
2018-08-10T00:39:34.728Z,23.5
2018-08-10T00:44:34.738Z,23.4
2018-08-10T00:49:46.638Z,23.4
2018-08-10T00:54:46.393Z,23.3
2018-08-10T00:59:46.476Z,23.3
2018-08-10T01:04:46.529Z,23.1
2018-08-10T01:09:46.569Z,23
2018-08-10T01:14:46.395Z,22.9
2018-08-10T01:19:46.532Z,22.8
2018-08-10T01:24:47.236Z,22.8
2018-08-10T01:29:47.128Z,22.8
2018-08-10T01:34:59.393Z,22.7
2018-08-10T01:39:59.119Z,22.6
2018-08-10T01:44:59.107Z,22.5
2018-08-10T01:49:59.128Z,22.4
2018-08-10T01:54:59.130Z,22.5
2018-08-10T02:00:02.783Z,22.3
2018-08-10T02:05:02.727Z,22.3
2018-08-10T02:10:02.647Z,22
2018-08-10T02:15:02.681Z,22.1
2018-08-10T02:20:02.508Z,22
2018-08-10T02:25:02.645Z,22
2018-08-10T02:30:02.693Z,21.9
2018-08-10T02:35:02.837Z,21.8
2018-08-10T02:40:02.562Z,21.7
2018-08-10T02:45:14.917Z,21.6
2018-08-10T02:50:14.802Z,21.6
2018-08-10T02:55:14.818Z,21.5
2018-08-10T03:00:14.652Z,21.6
2018-08-10T03:05:14.800Z,21.5
2018-08-10T03:10:14.657Z,21.6
2018-08-10T03:15:14.838Z,21.6
2018-08-10T03:20:16.559Z,21.6
2018-08-10T03:25:16.407Z,21.6
2018-08-10T03:30:31.834Z,21.6
2018-08-10T03:35:31.741Z,21.6
2018-08-10T03:40:31.565Z,21.6
2018-08-10T03:45:31.573Z,21.6
2018-08-10T03:50:31.707Z,21.6
2018-08-10T03:55:31.594Z,21.5
2018-08-10T04:00:31.738Z,21.5
2018-08-10T04:05:37.280Z,21.4
2018-08-10T04:10:37.151Z,21.6
2018-08-10T04:15:52.008Z,21.7
2018-08-10T04:20:51.875Z,21.7
2018-08-10T04:25:51.909Z,21.8
2018-08-10T04:30:51.960Z,21.8
2018-08-10T04:35:51.986Z,21.7
2018-08-10T04:40:51.739Z,21.8
2018-08-10T04:45:51.947Z,21.9
2018-08-10T04:50:51.879Z,21.9
2018-08-10T04:55:51.928Z,22
2018-08-10T05:00:51.751Z,22
2018-08-10T05:05:51.753Z,22
2018-08-10T05:10:51.912Z,22
2018-08-10T05:15:51.910Z,22.1
2018-08-10T05:20:51.832Z,22.1
2018-08-10T05:26:03.876Z,22.2
2018-08-10T05:31:03.828Z,22.2
2018-08-10T05:36:03.576Z,22.3
2018-08-10T05:41:03.786Z,22.3
2018-08-10T05:46:03.736Z,22.2
2018-08-10T05:51:05.804Z,22.3
2018-08-10T05:56:05.740Z,22.3
2018-08-10T06:01:05.534Z,22.4
2018-08-10T06:06:05.678Z,22.5
2018-08-10T06:11:05.495Z,22.6
2018-08-10T06:16:05.667Z,22.5
2018-08-10T06:21:05.551Z,22.6
2018-08-10T06:26:07.002Z,22.7
2018-08-10T06:31:06.714Z,22.7
2018-08-10T06:36:17.385Z,22.8
2018-08-10T06:41:17.069Z,23
2018-08-10T06:46:17.349Z,23.2
2018-08-10T06:51:17.303Z,23.3
2018-08-10T06:56:17.122Z,23.8
2018-08-10T07:01:17.368Z,24.5
2018-08-10T07:06:17.139Z,24.5
2018-08-10T07:11:17.135Z,24.4
2018-08-10T07:16:17.154Z,24.6
2018-08-10T07:21:28.662Z,25.2
2018-08-10T07:26:28.384Z,24.8
2018-08-10T07:31:28.364Z,24.8
2018-08-10T07:36:28.390Z,24.5
2018-08-10T07:41:28.410Z,24.4
2018-08-10T07:46:29.880Z,24.5
2018-08-10T07:51:29.526Z,24.5
2018-08-10T07:56:29.526Z,24.7
2018-08-10T08:01:29.749Z,24.8
2018-08-10T08:06:29.673Z,25
2018-08-10T08:11:29.567Z,25.2
2018-08-10T08:16:29.549Z,25.3
2018-08-10T08:21:31.681Z,25.5
2018-08-10T08:26:31.544Z,25.4
2018-08-10T08:31:31.378Z,24.9
2018-08-10T08:36:31.379Z,25.2
2018-08-10T08:41:31.331Z,24.8
2018-08-10T08:46:36.205Z,24.5
2018-08-10T08:51:35.566Z,25.1
2018-08-10T08:56:47.876Z,25.4
2018-08-10T09:01:47.611Z,25.4
2018-08-10T09:06:47.609Z,25.2
2018-08-10T09:11:47.841Z,25.5
2018-08-10T09:16:47.610Z,25.4
2018-08-10T09:21:47.637Z,25.2
2018-08-10T09:26:47.862Z,25.8
2018-08-10T09:31:49.253Z,25.8
2018-08-10T09:36:49.131Z,25.6
2018-08-10T09:42:01.858Z,25.8
2018-08-10T09:47:01.521Z,25.8
2018-08-10T09:52:01.602Z,25.5
2018-08-10T09:57:01.524Z,25.5
2018-08-10T10:02:01.550Z,25.3
2018-08-10T10:07:01.546Z,25.2
2018-08-10T10:12:01.539Z,24.9
2018-08-10T10:17:01.527Z,24.7
2018-08-10T10:22:01.541Z,24.7
2018-08-10T10:27:12.917Z,24.6
2018-08-10T10:32:12.497Z,24.1
2018-08-10T10:37:12.507Z,24.2
2018-08-10T10:42:12.542Z,23.8
2018-08-10T10:47:12.568Z,23.3
2018-08-10T10:52:12.520Z,23.2
2018-08-10T10:57:12.534Z,23.2
2018-08-10T11:02:12.547Z,22.9
2018-08-10T11:07:12.682Z,22.8
2018-08-10T11:12:23.343Z,22.7
2018-08-10T11:17:23.076Z,22.6
2018-08-10T11:22:23.079Z,22.4
2018-08-10T11:27:23.064Z,22.4
2018-08-10T11:32:23.206Z,22.2
2018-08-10T11:37:23.211Z,21.9
2018-08-10T11:42:23.372Z,22
2018-08-10T11:47:23.339Z,21.9
2018-08-10T11:52:23.351Z,21.2
2018-08-10T11:57:35.697Z,21.3
2018-08-10T12:02:35.543Z,20.7
2018-08-10T12:07:35.652Z,20.4
2018-08-10T12:12:35.447Z,20
2018-08-10T12:17:35.580Z,19.5
2018-08-10T12:22:36.645Z,19.3
2018-08-10T12:27:35.437Z,19
2018-08-10T12:32:36.996Z,19
2018-08-10T12:37:36.723Z,18.8
2018-08-10T12:42:49.012Z,18.6
2018-08-10T12:47:48.858Z,18.6
2018-08-10T12:52:48.747Z,18.4
2018-08-10T12:57:48.765Z,18.2
2018-08-10T13:02:48.789Z,18.4
2018-08-10T13:07:49.279Z,18.1
2018-08-10T13:12:48.764Z,18.1
2018-08-10T13:17:49.044Z,18
2018-08-10T13:22:48.973Z,18
2018-08-10T13:28:00.762Z,18.1
2018-08-10T13:33:00.471Z,18
2018-08-10T13:38:00.468Z,18.2
2018-08-10T13:43:00.489Z,17.8
2018-08-10T13:48:00.461Z,18
2018-08-10T13:53:01.922Z,18.1
2018-08-10T13:58:00.514Z,18.1
2018-08-10T14:03:00.514Z,18.2
2018-08-10T14:08:00.486Z,17.9
2018-08-10T14:13:12.527Z,18
2018-08-10T14:18:12.271Z,17.9
2018-08-10T14:23:12.209Z,17.8
2018-08-10T14:28:12.254Z,17.9
2018-08-10T14:33:12.281Z,17.8
2018-08-10T14:38:12.255Z,17.9
2018-08-10T14:43:12.274Z,17.9
2018-08-10T14:48:13.031Z,18
2018-08-10T14:53:14.060Z,18.1
2018-08-10T14:58:24.007Z,18.1
2018-08-10T15:03:23.679Z,18.1
2018-08-10T15:08:23.717Z,17.9
2018-08-10T15:13:23.718Z,17.9
2018-08-10T15:18:23.861Z,18
2018-08-10T15:23:23.845Z,17.9
2018-08-10T15:28:23.733Z,17.9
2018-08-10T15:33:24.014Z,18
2018-08-10T15:38:24.213Z,17.8
2018-08-10T15:43:36.487Z,17.8
2018-08-10T15:48:36.173Z,17.8
2018-08-10T15:53:36.166Z,18
2018-08-10T15:58:36.188Z,18.1
2018-08-10T16:03:36.219Z,18.1
2018-08-10T16:08:36.246Z,18.2
2018-08-10T16:13:36.188Z,18.1
2018-08-10T16:18:38.495Z,18.1
2018-08-10T16:23:38.221Z,18.2
2018-08-10T16:28:47.765Z,18.2
2018-08-10T16:33:47.500Z,18.3
2018-08-10T16:38:47.449Z,18.1
2018-08-10T16:43:47.497Z,18.3
2018-08-10T16:48:47.474Z,18.1
2018-08-10T16:53:47.493Z,18.1
2018-08-10T16:58:47.440Z,18.2
2018-08-10T17:03:47.466Z,18.3
2018-08-10T17:08:47.501Z,18.3
2018-08-10T17:13:58.980Z,18.2
2018-08-10T17:18:58.790Z,18.1
2018-08-10T17:23:58.659Z,18
2018-08-10T17:28:58.838Z,18
2018-08-10T17:33:58.725Z,17.9
2018-08-10T17:38:58.916Z,17.8
2018-08-10T17:43:58.937Z,17.8
2018-08-10T17:48:59.348Z,17.8
2018-08-10T17:53:59.039Z,17.8
2018-08-10T17:59:11.526Z,17.9
2018-08-10T18:04:11.168Z,17.9
2018-08-10T18:09:11.196Z,18
2018-08-10T18:14:11.195Z,18
2018-08-10T18:19:11.287Z,18
2018-08-10T18:24:11.229Z,18
2018-08-10T18:29:11.204Z,17.9
2018-08-10T18:34:11.333Z,17.9
2018-08-10T18:39:11.285Z,17.9
2018-08-10T18:44:23.228Z,17.9
2018-08-10T18:49:22.948Z,17.9
2018-08-10T18:54:22.970Z,17.9
2018-08-10T18:59:22.908Z,17.8
2018-08-10T19:04:22.913Z,17.9
2018-08-10T19:09:22.959Z,18
2018-08-10T19:14:22.971Z,17.9
2018-08-10T19:19:22.960Z,17.8
2018-08-10T19:24:22.968Z,17.9
2018-08-10T19:29:35.733Z,18
2018-08-10T19:34:35.423Z,17.9
2018-08-10T19:39:35.467Z,17.8
2018-08-10T19:44:35.439Z,17.8
2018-08-10T19:49:35.619Z,17.8
2018-08-10T19:54:35.449Z,17.7
2018-08-10T19:59:35.691Z,17.7
2018-08-10T20:04:35.427Z,17.7
2018-08-10T20:09:35.457Z,17.8
2018-08-10T20:14:35.465Z,17.8
2018-08-10T20:19:35.478Z,17.8
2018-08-10T20:24:35.473Z,17.8
2018-08-10T20:29:38.001Z,17.9
2018-08-10T20:34:37.713Z,17.7
2018-08-10T20:39:48.261Z,17.8
2018-08-10T20:44:47.977Z,17.8
2018-08-10T20:49:47.999Z,17.8
2018-08-10T20:54:48.006Z,17.8
2018-08-10T20:59:47.992Z,17.7
2018-08-10T21:04:47.978Z,17.8
2018-08-10T21:09:48.019Z,17.7
2018-08-10T21:14:47.998Z,17.7
2018-08-10T21:19:48.004Z,17.7
2018-08-10T21:24:59.681Z,17.7
2018-08-10T21:29:59.342Z,17.6
2018-08-10T21:34:59.383Z,17.6
2018-08-10T21:39:59.393Z,17.5
2018-08-10T21:44:59.770Z,17.6
2018-08-10T21:49:59.605Z,17.6
2018-08-10T21:54:59.605Z,17.6
2018-08-10T21:59:59.603Z,17.5
2018-08-10T22:04:59.604Z,17.4
2018-08-10T22:10:11.066Z,17.4
2018-08-10T22:15:10.811Z,17.4
2018-08-10T22:20:10.809Z,17.5
2018-08-10T22:25:10.994Z,17.4
2018-08-10T22:30:11.037Z,17.4
2018-08-10T22:35:11.022Z,17.4
2018-08-10T22:40:11.198Z,17.4
2018-08-10T22:45:11.238Z,17.3
2018-08-10T22:50:11.129Z,17.2
2018-08-10T22:55:11.023Z,17.4
2018-08-10T23:00:11.004Z,17.3
2018-08-10T23:05:11.030Z,17.4
2018-08-10T23:10:11.019Z,17.4
2018-08-10T23:15:11.022Z,17.4
2018-08-10T23:20:25.005Z,17.1
2018-08-10T23:25:24.710Z,17.2
2018-08-10T23:30:24.681Z,17.3
2018-08-10T23:35:24.713Z,17.2
2018-08-10T23:40:24.714Z,17.2
2018-08-10T23:45:24.718Z,17.2
2018-08-10T23:50:25.096Z,17.1
2018-08-10T23:55:30.054Z,17.1
